Time;durP1;ratioP1;P1;durP2;ratioP2;P2;SDS_P1;SDS_P2;PMS_P1;PMS_P2;Temp;Humidity;BMP_temperature;BMP_pressure;BME280_temperature;BME280_humidity;BME280_pressure;Samples;Min_cycle;Max_cycle;Signal;HPM_P1;HPM_P2
2022/09/10 00:00:45;;;;;;;1.17;1.02;;;;;;;15.81;59.74;100410.13;5024978;28;20018;-24
2022/09/10 00:03:10;;;;;;;1.17;0.90;;;;;;;15.80;59.67;100404.88;5028911;28;20029;-25
2022/09/10 00:05:40;;;;;;;1.88;1.20;;;;;;;15.75;59.72;100405.91;5029942;28;20067;-24
2022/09/10 00:08:06;;;;;;;1.92;1.10;;;;;;;15.75;59.83;100415.66;5030006;28;20029;-24
2022/09/10 00:10:40;;;;;;;1.67;1.20;;;;;;;15.71;59.94;100408.72;5034397;28;20049;-24
2022/09/10 00:13:06;;;;;;;2.55;1.27;;;;;;;15.70;59.86;100409.66;5027759;28;20123;-23
2022/09/10 00:15:44;;;;;;;1.88;1.33;;;;;;;15.67;59.97;100413.25;5023213;28;20021;-24
2022/09/10 00:18:11;;;;;;;1.30;1.20;;;;;;;15.67;59.91;100405.28;5029052;28;20032;-24
2022/09/10 00:20:43;;;;;;;2.15;1.58;;;;;;;15.64;59.86;100405.41;5028691;28;20081;-24
2022/09/10 00:23:09;;;;;;;2.35;1.50;;;;;;;15.62;59.97;100399.25;5031069;28;20040;-24
2022/09/10 00:25:34;;;;;;;1.90;1.75;;;;;;;15.59;60.02;100402.91;5033027;28;20022;-24
2022/09/10 00:28:01;;;;;;;2.55;1.33;;;;;;;15.56;59.97;100396.81;5030669;28;20029;-24
2022/09/10 00:30:26;;;;;;;1.58;1.30;;;;;;;15.54;60.05;100401.31;5030443;28;20025;-24
2022/09/10 00:32:52;;;;;;;1.52;1.35;;;;;;;15.54;59.99;100403.97;5012931;28;20032;-24
2022/09/10 00:35:20;;;;;;;3.28;1.30;;;;;;;15.49;60.02;100404.13;5029310;28;20115;-24
2022/09/10 00:37:46;;;;;;;2.92;1.48;;;;;;;15.47;60.70;100406.84;5029135;28;20061;-24
2022/09/10 00:40:12;;;;;;;1.90;1.48;;;;;;;15.47;60.23;100411.31;5031472;28;20115;-24
2022/09/10 00:42:44;;;;;;;1.80;1.67;;;;;;;15.43;60.39;100406.97;5030136;28;20052;-24
2022/09/10 00:45:19;;;;;;;2.75;1.98;;;;;;;15.41;60.34;100406.19;5020980;28;20471;-24
2022/09/10 00:47:46;;;;;;;1.85;1.45;;;;;;;15.39;60.41;100406.22;5047713;28;20489;-24
2022/09/10 00:50:17;;;;;;;1.95;1.60;;;;;;;15.37;60.31;100418.69;5030701;28;20380;-24
2022/09/10 00:52:43;;;;;;;;;;;;;;;15.37;60.34;100418.69;5023513;28;20017;-24
2022/09/10 00:55:09;;;;;;;1.48;1.38;;;;;;;15.32;60.35;100417.97;5029673;28;19967;-24
2022/09/10 00:57:35;;;;;;;2.05;1.50;;;;;;;15.32;60.38;100421.53;5022988;28;20539;-24
2022/09/10 01:00:06;;;;;;;1.85;1.50;;;;;;;15.31;60.29;100416.25;5026613;28;20025;-24
2022/09/10 01:02:31;;;;;;;2.45;1.60;;;;;;;15.29;60.29;100413.66;5029006;28;20033;-24
2022/09/10 01:04:57;;;;;;;1.60;1.45;;;;;;;15.27;60.36;100416.34;5032619;28;20078;-24
2022/09/10 01:07:24;;;;;;;1.67;1.58;;;;;;;15.25;60.15;100410.19;5031941;28;20037;-24
2022/09/10 01:09:50;;;;;;;2.40;1.30;;;;;;;15.21;60.55;100411.22;5019121;28;20491;-24
2022/09/10 01:12:20;;;;;;;1.40;1.30;;;;;;;15.20;60.54;100412.16;5030277;28;20037;-25
2022/09/10 01:14:56;;;;;;;1.63;1.20;;;;;;;15.19;60.53;100410.41;5026394;28;20025;-24
2022/09/10 01:17:36;;;;;;;1.98;1.30;;;;;;;15.16;60.54;100410.53;5033371;28;20041;-24
2022/09/10 01:20:30;;;;;;;1.30;1.20;;;;;;;15.16;60.71;100413.16;5019731;28;20022;-24
2022/09/10 01:23:14;;;;;;;1.40;1.30;;;;;;;15.14;60.69;100407.06;5028952;28;20048;-24
2022/09/10 01:25:46;;;;;;;1.48;1.35;;;;;;;15.13;60.70;100410.63;5046439;28;20032;-24
2022/09/10 01:28:19;;;;;;;1.38;0.90;;;;;;;15.11;60.91;100405.34;5035213;28;20030;-24
2022/09/10 01:30:50;;;;;;;1.73;1.27;;;;;;;15.11;61.06;100418.63;5026021;28;20109;-24
2022/09/10 01:33:32;;;;;;;2.33;1.25;;;;;;;15.07;61.22;100416.13;5033550;28;20437;-24
2022/09/10 01:36:01;;;;;;;1.35;1.25;;;;;;;15.09;61.22;100419.59;5026279;28;20028;-23
2022/09/10 01:38:33;;;;;;;1.30;1.25;;;;;;;15.07;61.25;100418.78;5048037;28;20071;-24
2022/09/10 01:40:58;;;;;;;2.17;1.23;;;;;;;15.07;61.11;100421.44;5033370;28;20041;-24
2022/09/10 01:43:23;;;;;;;2.50;1.23;;;;;;;15.08;61.34;100412.56;5034544;28;20117;-24
2022/09/10 01:46:08;;;;;;;1.83;1.02;;;;;;;15.07;61.25;100416.13;5074130;28;20029;-24
2022/09/10 01:49:13;;;;;;;1.10;0.93;;;;;;;15.06;61.25;100409.06;5029159;28;20480;-24
2022/09/10 01:51:38;;;;;;;2.45;1.33;;;;;;;15.05;61.29;100423.28;5048718;28;20028;-24
2022/09/10 01:54:15;;;;;;;1.10;1.00;;;;;;;15.05;61.41;100418.84;5031344;28;20037;-24
2022/09/10 01:57:01;;;;;;;2.80;0.88;;;;;;;15.06;61.34;100420.56;5066926;28;20370;-24
2022/09/10 01:59:42;;;;;;;2.47;1.17;;;;;;;15.07;61.19;100424.09;5030525;28;20037;-24
2022/09/10 02:02:09;;;;;;;;;;;;;;;15.08;61.20;100410.78;5031225;28;20025;-24
2022/09/10 02:04:35;;;;;;;1.00;1.00;;;;;;;15.08;61.34;100417.88;5031778;28;20451;-24
2022/09/10 02:07:03;;;;;;;1.95;1.25;;;;;;;15.11;61.40;100415.13;5039829;28;20104;-24
2022/09/10 02:09:28;;;;;;;1.70;1.13;;;;;;;15.13;61.63;100411.50;5038604;28;20025;-24
2022/09/10 02:11:55;;;;;;;2.22;1.10;;;;;;;15.11;61.61;100415.13;5072561;28;20017;-24
2022/09/10 02:14:21;;;;;;;1.15;1.05;;;;;;;15.09;61.65;100415.16;5040686;28;20087;-24
2022/09/10 02:16:54;;;;;;;2.25;1.08;;;;;;;15.09;61.58;100408.97;5032965;28;20032;-24
2022/09/10 02:19:20;;;;;;;1.60;1.20;;;;;;;15.09;61.64;100404.53;5014965;28;20545;-24
2022/09/10 02:21:45;;;;;;;1.17;1.08;;;;;;;15.09;61.61;100412.50;5028440;28;20269;-24
2022/09/10 02:24:11;;;;;;;1.00;1.00;;;;;;;15.08;61.53;100404.59;5035132;28;20034;-24
2022/09/10 02:26:39;;;;;;;1.20;0.95;;;;;;;15.06;61.65;100409.06;5038665;28;20033;-24
2022/09/10 02:29:06;;;;;;;1.80;1.27;;;;;;;15.07;61.67;100411.69;5031887;28;20064;-24
2022/09/10 02:31:31;;;;;;;1.08;1.00;;;;;;;15.10;61.90;100414.25;5031439;28;20028;-24
2022/09/10 02:33:57;;;;;;;1.02;1.02;;;;;;;15.09;63.10;100419.59;5031435;28;20017;-24
2022/09/10 02:36:24;;;;;;;3.47;1.00;;;;;;;15.10;63.46;100411.59;5031629;28;20055;-24
2022/09/10 02:38:55;;;;;;;1.52;1.10;;;;;;;15.08;64.03;100412.56;5026631;28;20157;-24
2022/09/10 02:41:24;;;;;;;1.02;0.98;;;;;;;15.06;64.39;100411.72;5026292;28;20018;-24
2022/09/10 02:43:50;;;;;;;1.88;0.90;;;;;;;14.99;64.72;100411.94;5025071;28;20034;-24
2022/09/10 02:46:16;;;;;;;1.30;0.90;;;;;;;15.03;65.28;100409.19;5026112;28;20080;-24
2022/09/10 02:48:41;;;;;;;3.60;1.48;;;;;;;15.04;65.35;100410.91;5027782;28;20083;-24
2022/09/10 02:51:07;;;;;;;1.15;0.90;;;;;;;15.06;65.26;100409.06;5067492;28;20029;-24
2022/09/10 02:53:32;;;;;;;0.90;0.90;;;;;;;15.09;64.76;100416.94;5035148;28;20021;-24
2022/09/10 02:55:57;;;;;;;1.15;1.00;;;;;;;15.11;64.17;100413.31;5037391;28;20026;-24
2022/09/10 02:58:23;;;;;;;1.05;1.00;;;;;;;15.11;63.70;100407.16;5038608;28;20545;-24
2022/09/10 03:00:49;;;;;;;1.00;0.80;;;;;;;15.10;63.33;100410.72;5062352;28;20029;-24
2022/09/10 03:03:16;;;;;;;1.15;0.80;;;;;;;15.09;63.13;100409.84;5033649;28;20370;-24
2022/09/10 03:05:42;;;;;;;1.05;1.00;;;;;;;15.11;62.99;100408.00;5030245;28;20029;-24
2022/09/10 03:08:08;;;;;;;1.05;0.90;;;;;;;15.11;62.91;100417.78;5036594;28;20065;-24
2022/09/10 03:10:34;;;;;;;1.23;1.00;;;;;;;15.14;62.87;100420.34;5029376;28;20045;-24
2022/09/10 03:12:59;;;;;;;1.42;1.00;;;;;;;15.13;62.90;100415.91;5029710;28;20444;-24
2022/09/10 03:15:25;;;;;;;0.90;0.90;;;;;;;15.12;63.01;100416.84;5031012;28;20100;-24
2022/09/10 03:17:50;;;;;;;2.63;0.95;;;;;;;15.13;62.83;100407.97;5045077;28;20027;-24
2022/09/10 03:20:17;;;;;;;2.30;1.20;;;;;;;15.13;62.75;100407.97;5035444;28;20262;-24
2022/09/10 03:22:42;;;;;;;1.63;1.52;;;;;;;15.15;62.85;100408.78;5028884;28;20577;-24
2022/09/10 03:25:08;;;;;;;1.33;1.33;;;;;;;15.13;62.83;100410.63;5039314;28;20116;-25
2022/09/10 03:27:34;;;;;;;1.02;0.98;;;;;;;15.12;62.93;100411.53;5012469;28;20034;-24
2022/09/10 03:29:59;;;;;;;1.95;1.38;;;;;;;15.15;63.06;100414.09;5031469;28;20029;-24
2022/09/10 03:32:25;;;;;;;1.50;1.00;;;;;;;15.13;63.01;100410.63;5032591;28;20025;-24
2022/09/10 03:34:51;;;;;;;1.10;1.00;;;;;;;15.12;62.88;100419.50;5030629;28;20489;-24
2022/09/10 03:37:16;;;;;;;1.50;1.20;;;;;;;15.10;62.79;100416.91;5057253;28;20848;-24
2022/09/10 03:39:42;;;;;;;1.17;0.82;;;;;;;15.13;62.73;100415.91;5029309;28;20511;-24
2022/09/10 03:42:07;;;;;;;2.25;1.40;;;;;;;15.13;62.93;100427.44;5030297;28;20042;-24
2022/09/10 03:44:33;;;;;;;0.95;0.93;;;;;;;15.13;62.99;100429.22;5028814;28;20029;-24
2022/09/10 03:46:59;;;;;;;1.08;0.80;;;;;;;15.13;62.79;100426.56;5032328;28;20037;-24
2022/09/10 03:49:25;;;;;;;2.03;0.90;;;;;;;15.10;62.81;100423.97;5029756;28;20025;-24
2022/09/10 03:51:51;;;;;;;1.02;0.60;;;;;;;15.10;62.81;100421.31;5029696;28;20040;-24
2022/09/10 03:54:16;;;;;;;1.00;1.00;;;;;;;15.09;62.75;100425.78;5031056;28;20036;-24
2022/09/10 03:56:43;;;;;;;1.00;0.90;;;;;;;15.09;62.76;100425.78;5030707;28;21144;-24
2022/09/10 03:59:08;;;;;;;0.88;0.85;;;;;;;15.09;62.79;100430.22;5028416;28;20068;-24
2022/09/10 04:01:33;;;;;;;0.85;0.82;;;;;;;15.11;62.85;100428.41;5024848;28;20113;-24
2022/09/10 04:03:59;;;;;;;0.77;0.75;;;;;;;15.09;63.09;100427.56;5026691;28;20048;-24
2022/09/10 04:06:25;;;;;;;1.00;0.98;;;;;;;15.08;62.91;100428.50;5033292;28;20021;-24
2022/09/10 04:08:51;;;;;;;0.93;0.93;;;;;;;15.10;63.15;100427.53;5067848;28;20075;-24
2022/09/10 04:11:17;;;;;;;1.13;0.90;;;;;;;15.08;62.91;100423.19;5023691;28;20021;-24
2022/09/10 04:13:44;;;;;;;0.85;0.85;;;;;;;15.07;63.06;100418.78;5027042;28;20026;-24
2022/09/10 04:16:10;;;;;;;1.83;0.80;;;;;;;15.05;62.92;100424.16;5028868;28;20036;-24
2022/09/10 04:18:36;;;;;;;1.13;0.90;;;;;;;15.08;62.81;100425.84;5022910;28;20052;-24
2022/09/10 04:21:01;;;;;;;0.75;0.75;;;;;;;15.08;62.92;100429.38;5025241;28;20519;-24
2022/09/10 04:23:28;;;;;;;1.40;1.08;;;;;;;15.07;62.94;100424.97;5029474;28;20382;-24
2022/09/10 04:25:54;;;;;;;1.10;1.00;;;;;;;15.08;62.99;100428.50;5023765;28;20021;-24
2022/09/10 04:28:19;;;;;;;0.90;0.90;;;;;;;15.07;62.92;100424.97;5024075;28;20121;-24
2022/09/10 04:30:45;;;;;;;1.00;0.90;;;;;;;15.07;62.90;100424.09;5028644;28;20075;-24
2022/09/10 04:33:11;;;;;;;1.45;0.90;;;;;;;15.08;62.86;100428.50;5035137;28;20396;-24
2022/09/10 04:35:38;;;;;;;1.08;0.90;;;;;;;15.05;63.02;100429.47;5024734;28;21097;-24
2022/09/10 04:38:04;;;;;;;1.02;0.80;;;;;;;15.05;62.84;100431.25;5028556;28;20041;-24
2022/09/10 04:40:29;;;;;;;1.20;0.75;;;;;;;15.05;62.98;100426.81;5031566;28;20032;-24
2022/09/10 04:42:55;;;;;;;1.23;0.90;;;;;;;15.06;63.74;100425.00;5026439;28;20260;-24
2022/09/10 04:45:20;;;;;;;1.27;1.10;;;;;;;15.05;64.08;100417.97;5028298;28;20652;-24
2022/09/10 04:47:46;;;;;;;2.25;1.50;;;;;;;15.04;64.37;100418.88;5030185;28;20068;-24
2022/09/10 04:50:14;;;;;;;2.83;1.17;;;;;;;15.00;64.06;100415.44;5040672;28;20544;-24
2022/09/10 04:52:40;;;;;;;1.05;1.02;;;;;;;15.00;64.78;100415.44;5047217;28;20112;-24
2022/09/10 04:55:06;;;;;;;2.60;0.85;;;;;;;14.99;64.51;100425.22;5039077;28;20089;-24
2022/09/10 04:57:31;;;;;;;1.05;0.98;;;;;;;14.98;64.21;100427.91;5034603;28;20108;-24
2022/09/10 04:59:56;;;;;;;1.40;0.90;;;;;;;14.97;63.84;100427.03;5034587;28;20499;-24
2022/09/10 05:02:22;;;;;;;0.73;0.73;;;;;;;14.97;63.76;100423.53;5035353;28;20029;-24
2022/09/10 05:04:48;;;;;;;1.15;1.05;;;;;;;14.95;64.26;100423.59;5029817;28;20495;-24
2022/09/10 05:07:13;;;;;;;1.15;1.00;;;;;;;14.95;63.92;100423.59;5035641;28;20061;-24
2022/09/10 05:09:38;;;;;;;0.80;0.80;;;;;;;14.93;63.76;100416.56;5028954;28;20088;-24
2022/09/10 05:12:04;;;;;;;1.33;1.20;;;;;;;14.91;63.57;100421.94;5031733;28;20062;-24
2022/09/10 05:14:29;;;;;;;0.70;0.70;;;;;;;14.92;64.14;100412.16;5027270;28;20033;-24
2022/09/10 05:16:55;;;;;;;1.25;1.00;;;;;;;14.94;64.18;100421.81;5033423;28;20156;-24
2022/09/10 05:19:20;;;;;;;1.48;1.00;;;;;;;14.91;64.64;100421.94;5033830;28;20025;-24
2022/09/10 05:21:47;;;;;;;1.90;1.02;;;;;;;14.90;64.40;100419.34;5028469;28;20021;-24
2022/09/10 05:24:13;;;;;;;0.80;0.80;;;;;;;14.90;64.51;100425.50;5030966;28;20116;-24
2022/09/10 05:26:38;;;;;;;0.88;0.88;;;;;;;14.88;64.72;100424.69;5033131;28;20100;-24
2022/09/10 05:29:05;;;;;;;1.10;0.90;;;;;;;14.90;64.56;100428.16;5034960;28;20159;-24
2022/09/10 05:31:30;;;;;;;1.90;0.80;;;;;;;14.89;64.26;100429.06;5015768;28;20025;-24
2022/09/10 05:34:00;;;;;;;1.95;0.95;;;;;;;14.87;64.00;100428.22;5033461;28;20025;-24
2022/09/10 05:36:26;;;;;;;1.88;1.13;;;;;;;14.85;64.01;100427.44;5030542;28;20048;-24
2022/09/10 05:38:51;;;;;;;3.72;1.10;;;;;;;14.85;64.48;100427.44;5039971;28;20026;-23
2022/09/10 05:41:17;;;;;;;1.23;1.13;;;;;;;14.85;64.60;100432.75;5025845;28;20108;-24
2022/09/10 05:43:42;;;;;;;0.90;0.90;;;;;;;14.84;64.46;100439.81;5024349;28;20713;-24
2022/09/10 05:46:07;;;;;;;1.00;1.00;;;;;;;14.87;64.09;100436.19;5026789;28;20042;-24
2022/09/10 05:48:33;;;;;;;0.90;0.90;;;;;;;14.86;64.15;100439.78;5032637;28;20028;-24
2022/09/10 05:50:58;;;;;;;1.35;1.25;;;;;;;14.86;64.36;100442.44;5037605;28;20052;-24
2022/09/10 05:53:23;;;;;;;4.30;1.00;;;;;;;14.87;64.54;100446.81;5031591;28;20527;-24
2022/09/10 05:55:49;;;;;;;1.50;1.10;;;;;;;14.89;64.84;100445.00;5040352;28;20071;-24
2022/09/10 05:58:15;;;;;;;1.10;1.00;;;;;;;14.91;65.88;100450.25;5033176;28;20033;-24
2022/09/10 06:00:42;;;;;;;0.98;0.85;;;;;;;14.94;65.80;100452.84;5033512;28;20029;-24
2022/09/10 06:03:07;;;;;;;1.52;1.08;;;;;;;14.97;66.53;100453.59;5035247;28;20029;-24
2022/09/10 06:05:32;;;;;;;1.10;1.00;;;;;;;14.99;65.67;100449.13;5030511;28;20048;-24
2022/09/10 06:07:58;;;;;;;0.88;0.85;;;;;;;15.03;65.26;100449.03;5038490;28;20088;-24
2022/09/10 06:10:23;;;;;;;5.35;1.00;;;;;;;15.06;65.74;100451.56;5028497;28;20087;-23
2022/09/10 06:12:50;;;;;;;0.70;0.70;;;;;;;15.08;65.38;100447.97;5043377;28;20233;-24
2022/09/10 06:15:17;;;;;;;0.70;0.70;;;;;;;15.13;64.85;100453.09;5032944;28;20485;-24
2022/09/10 06:17:42;;;;;;;3.05;1.30;;;;;;;15.17;65.04;100448.59;5034198;28;20029;-24
2022/09/10 06:20:08;;;;;;;0.80;0.80;;;;;;;15.23;65.81;100448.38;5028700;28;20044;-24
2022/09/10 06:22:34;;;;;;;2.03;0.70;;;;;;;15.25;65.02;100455.38;5031586;28;20104;-22
2022/09/10 06:24:59;;;;;;;2.13;0.85;;;;;;;15.27;65.28;100456.19;5040467;28;20086;-24
2022/09/10 06:27:25;;;;;;;1.25;0.77;;;;;;;15.32;65.33;100463.16;5038702;28;20053;-24
2022/09/10 06:29:50;;;;;;;0.85;0.85;;;;;;;15.37;65.95;100467.41;5040943;28;20072;-24
2022/09/10 06:32:16;;;;;;;0.93;0.88;;;;;;;15.39;66.21;100462.91;5037835;28;20465;-24
2022/09/10 06:34:41;;;;;;;1.60;1.25;;;;;;;15.42;65.79;100459.28;5033999;28;20566;-24
2022/09/10 06:37:07;;;;;;;0.90;0.90;;;;;;;15.45;65.61;100468.94;5047068;28;20033;-24
2022/09/10 06:39:32;;;;;;;0.88;0.88;;;;;;;15.45;65.29;100459.19;5033794;28;20358;-24
2022/09/10 06:41:58;;;;;;;1.77;1.00;;;;;;;15.47;65.60;100473.28;5030242;28;20052;-23
2022/09/10 06:44:23;;;;;;;1.80;1.20;;;;;;;15.49;65.04;100470.56;5029747;28;20053;-24
2022/09/10 06:46:48;;;;;;;1.02;1.00;;;;;;;15.52;64.78;100471.34;5046636;28;20026;-23
2022/09/10 06:49:14;;;;;;;1.55;0.70;;;;;;;15.52;64.56;100468.69;5032393;28;20593;-24
2022/09/10 06:51:40;;;;;;;1.08;1.00;;;;;;;15.58;65.27;100466.75;5032978;28;20053;-24
2022/09/10 06:54:06;;;;;;;0.70;0.70;;;;;;;15.59;64.30;100463.16;5034707;28;20057;-24
2022/09/10 06:56:32;;;;;;;2.03;1.27;;;;;;;15.60;64.24;100464.88;5032036;28;20032;-24
2022/09/10 06:58:57;;;;;;;1.15;0.90;;;;;;;15.65;65.57;100474.44;5040053;28;20021;-24
2022/09/10 07:01:24;;;;;;;1.20;1.05;;;;;;;15.69;65.31;100464.59;5025589;28;20392;-24
2022/09/10 07:03:56;;;;;;;1.00;0.73;;;;;;;15.73;64.43;100458.25;5029872;28;20033;-24
2022/09/10 07:06:22;;;;;;;0.90;0.90;;;;;;;15.77;64.10;100461.66;5028174;28;20108;-24
2022/09/10 07:08:48;;;;;;;1.10;1.00;;;;;;;15.85;66.09;100462.28;5034484;28;20108;-24
2022/09/10 07:11:14;;;;;;;0.70;0.70;;;;;;;15.86;65.00;100473.78;5032144;28;20459;-24
2022/09/10 07:13:41;;;;;;;0.90;0.80;;;;;;;15.89;65.37;100476.34;5031037;28;20025;-23
2022/09/10 07:16:07;;;;;;;0.90;0.90;;;;;;;15.94;64.79;100476.19;5029246;28;20033;-23
2022/09/10 07:18:33;;;;;;;0.80;0.80;;;;;;;16.02;65.69;100480.34;5040096;28;20395;-24
2022/09/10 07:21:12;;;;;;;1.13;1.00;;;;;;;16.08;65.31;100473.94;5028966;28;20495;-24
2022/09/10 07:23:37;;;;;;;1.08;1.08;;;;;;;16.14;65.63;100470.19;5027651;28;20040;-24
2022/09/10 07:26:21;;;;;;;2.75;1.00;;;;;;;16.23;65.78;100477.84;5025207;28;20033;-24
2022/09/10 07:28:47;;;;;;;1.17;0.75;;;;;;;16.31;65.39;100474.03;5032356;28;20025;-24
2022/09/10 07:31:18;;;;;;;1.15;1.08;;;;;;;16.37;65.82;100481.81;5027073;28;20400;-24
2022/09/10 07:33:44;;;;;;;0.77;0.77;;;;;;;16.41;65.37;100483.44;5029156;28;20025;-24
2022/09/10 07:36:11;;;;;;;2.72;1.00;;;;;;;16.48;66.07;100487.59;5030744;28;20039;-24
2022/09/10 07:38:36;;;;;;;0.63;0.63;;;;;;;16.51;66.18;100482.13;5039057;28;20029;-24
2022/09/10 07:41:02;;;;;;;1.15;1.05;;;;;;;16.57;65.82;100480.19;5032075;28;20044;-24
2022/09/10 07:43:28;;;;;;;1.65;0.85;;;;;;;16.59;65.81;100475.66;5031701;28;20029;-24
2022/09/10 07:45:54;;;;;;;2.17;1.02;;;;;;;16.65;66.35;100478.09;5029614;28;20025;-25
2022/09/10 07:48:19;;;;;;;1.00;0.88;;;;;;;16.72;66.59;100487.59;5038688;28;20028;-24
2022/09/10 07:50:44;;;;;;;1.05;0.90;;;;;;;16.82;67.82;100485.44;5051607;28;20390;-24
2022/09/10 07:53:10;;;;;;;2.28;1.20;;;;;;;16.88;66.64;100490.53;5043203;28;20032;-24
2022/09/10 07:55:35;;;;;;;1.98;1.20;;;;;;;16.97;66.87;100493.78;5040033;28;20028;-24
2022/09/10 07:58:00;;;;;;;3.53;1.55;;;;;;;17.03;67.29;100494.41;5029145;28;20017;-24
2022/09/10 08:00:26;;;;;;;2.17;1.42;;;;;;;17.20;67.84;100498.22;5061945;28;20678;-24
2022/09/10 08:02:51;;;;;;;1.73;0.90;;;;;;;17.30;67.08;100496.94;5039486;28;20030;-24
2022/09/10 08:05:16;;;;;;;5.68;1.92;;;;;;;17.43;67.15;100496.44;5031431;28;20038;-24
2022/09/10 08:07:42;;;;;;;3.85;1.17;;;;;;;17.60;67.31;100492.22;5031826;28;20103;-24
2022/09/10 08:10:09;;;;;;;1.20;1.02;;;;;;;17.72;67.29;100499.72;5030190;28;20014;-24
2022/09/10 08:12:35;;;;;;;2.90;1.20;;;;;;;17.74;66.76;100513.81;5031244;28;20082;-25
2022/09/10 08:15:01;;;;;;;1.13;0.95;;;;;;;17.86;66.59;100506.25;5030766;28;20025;-24
2022/09/10 08:17:29;;;;;;;1.42;1.05;;;;;;;17.80;66.66;100510.91;5056158;28;20025;-25
2022/09/10 08:19:55;;;;;;;1.23;1.05;;;;;;;17.81;66.29;100507.31;5029668;28;20481;-24
2022/09/10 08:22:21;;;;;;;2.15;1.20;;;;;;;17.90;65.96;100505.16;5030644;28;20078;-24
2022/09/10 08:24:47;;;;;;;0.80;0.80;;;;;;;18.03;65.41;100510.84;5030804;28;20025;-24
2022/09/10 08:27:13;;;;;;;2.00;1.00;;;;;;;18.24;65.81;100511.75;5030366;28;20065;-25
2022/09/10 08:29:38;;;;;;;1.38;1.27;;;;;;;18.26;65.37;100509.03;5030461;28;20029;-24
2022/09/10 08:32:06;;;;;;;1.60;1.25;;;;;;;18.27;65.27;100503.63;5039628;28;20041;-24
2022/09/10 08:34:33;;;;;;;1.63;0.98;;;;;;;18.30;65.03;100518.63;5038938;28;20539;-24
2022/09/10 08:36:58;;;;;;;1.25;1.10;;;;;;;18.39;64.66;100512.00;5042013;28;20029;-25
2022/09/10 08:39:24;;;;;;;3.78;1.20;;;;;;;18.51;64.69;100516.78;5043193;28;20477;-24
2022/09/10 08:41:55;;;;;;;2.55;1.13;;;;;;;18.60;64.42;100520.84;5041420;28;20090;-25
2022/09/10 08:44:32;;;;;;;1.50;0.98;;;;;;;18.71;64.47;100525.72;5037771;28;20033;-24
2022/09/10 08:46:57;;;;;;;1.23;1.13;;;;;;;18.70;64.47;100516.84;5041441;28;20040;-25
2022/09/10 08:49:41;;;;;;;1.90;0.90;;;;;;;18.96;64.55;100513.88;5033624;28;20022;-24
2022/09/10 08:52:30;;;;;;;1.45;1.00;;;;;;;19.06;63.80;100520.56;5036038;28;20063;-24
2022/09/10 08:55:11;;;;;;;3.75;1.00;;;;;;;19.14;63.45;100532.72;5029697;28;20026;-25
2022/09/10 08:57:46;;;;;;;3.20;1.40;;;;;;;19.29;63.20;100529.31;5030214;28;20029;-23
2022/09/10 09:00:16;;;;;;;1.08;0.82;;;;;;;19.32;63.11;100529.16;5031344;28;20075;-23
2022/09/10 09:03:02;;;;;;;0.90;0.90;;;;;;;19.29;62.52;100523.97;5031049;28;20056;-23
2022/09/10 09:05:28;;;;;;;3.40;1.00;;;;;;;19.36;62.32;100522.72;5019001;28;20088;-23
2022/09/10 09:07:57;;;;;;;1.20;0.90;;;;;;;19.42;62.57;100526.03;5050103;28;20029;-23
2022/09/10 09:10:39;;;;;;;2.63;1.00;;;;;;;19.52;62.60;100535.34;5045485;28;20025;-23
2022/09/10 09:13:25;;;;;;;2.30;1.00;;;;;;;19.58;62.36;100518.13;5029935;28;20021;-23
2022/09/10 09:16:05;;;;;;;1.00;1.00;;;;;;;19.71;62.33;100515.72;5025024;28;20075;-24
2022/09/10 09:18:47;;;;;;;2.15;1.00;;;;;;;19.83;62.12;100516.88;5028906;28;20476;-24
2022/09/10 09:21:19;;;;;;;0.88;0.80;;;;;;;19.92;62.10;100523.59;5025674;28;20469;-22
2022/09/10 09:23:48;;;;;;;1.83;0.98;;;;;;;20.02;62.17;100516.84;5026122;28;20052;-22
2022/09/10 09:26:15;;;;;;;1.63;1.15;;;;;;;20.16;61.77;100521.50;5041514;28;20029;-22
2022/09/10 09:28:45;;;;;;;1.70;1.05;;;;;;;20.23;61.43;100519.34;5041700;28;20024;-22
2022/09/10 09:31:37;;;;;;;;;;;;;;;20.21;62.19;100524.78;5071398;28;20041;-22
2022/09/10 09:34:12;;;;;;;1.70;1.33;;;;;;;20.48;61.20;100512.72;5036716;28;20288;-22
2022/09/10 09:36:41;;;;;;;1.27;1.00;;;;;;;20.64;61.36;100518.97;5034560;28;20029;-22
2022/09/10 09:39:21;;;;;;;1.70;1.10;;;;;;;20.77;61.00;100518.28;5033096;28;20537;-22
2022/09/10 09:41:53;;;;;;;3.10;1.23;;;;;;;20.91;60.99;100514.03;5016555;28;20041;-22
2022/09/10 09:44:48;;;;;;;1.75;1.00;;;;;;;21.03;60.73;100513.34;5032530;28;20033;-22
2022/09/10 09:47:14;;;;;;;1.40;1.20;;;;;;;21.21;60.36;100515.94;5040876;28;20364;-22
2022/09/10 09:49:39;;;;;;;2.17;1.10;;;;;;;21.28;59.82;100511.97;5044447;28;20546;-22
2022/09/10 09:52:15;;;;;;;2.03;1.02;;;;;;;21.44;58.50;100511.09;5058724;28;20271;-24
2022/09/10 09:54:44;;;;;;;1.23;0.90;;;;;;;21.52;58.73;100503.44;5056674;28;20056;-23
2022/09/10 09:57:19;;;;;;;2.67;1.15;;;;;;;21.65;58.82;100495.56;5054601;28;20021;-24
2022/09/10 09:59:45;;;;;;;2.33;0.98;;;;;;;21.79;58.40;100492.94;5037544;28;20033;-25
2022/09/10 10:02:13;;;;;;;2.40;1.20;;;;;;;21.85;58.35;100497.09;5044577;28;20033;-23
2022/09/10 10:04:40;;;;;;;2.47;1.13;;;;;;;21.92;57.50;100479.66;5045862;28;20031;-24
2022/09/10 10:07:06;;;;;;;2.45;1.00;;;;;;;22.07;57.09;100476.97;5025155;28;20018;-24
2022/09/10 10:09:40;;;;;;;1.20;0.93;;;;;;;22.17;56.81;100482.66;5019883;28;20037;-23
2022/09/10 10:12:17;;;;;;;2.45;1.10;;;;;;;22.24;56.93;100480.47;5035142;28;20021;-23
2022/09/10 10:14:43;;;;;;;2.45;1.25;;;;;;;22.35;57.34;100482.50;5032258;28;20031;-24
2022/09/10 10:17:23;;;;;;;1.52;1.10;;;;;;;22.34;57.10;100475.41;5042008;28;20048;-24
2022/09/10 10:19:57;;;;;;;1.10;1.00;;;;;;;22.46;57.56;100471.06;5015651;28;20044;-23
2022/09/10 10:22:29;;;;;;;1.90;1.13;;;;;;;22.64;56.45;100471.78;5046885;28;20072;-23
2022/09/10 10:24:54;;;;;;;2.50;0.90;;;;;;;22.79;55.95;100472.59;5015968;28;20029;-23
2022/09/10 10:27:35;;;;;;;2.58;1.00;;;;;;;22.81;56.23;100471.53;5037671;28;20025;-23
2022/09/10 10:30:15;;;;;;;1.50;1.02;;;;;;;22.98;55.24;100474.13;5073457;28;20032;-23
2022/09/10 10:32:44;;;;;;;1.80;0.80;;;;;;;23.06;55.31;100469.97;5047144;28;20303;-23
2022/09/10 10:35:17;;;;;;;2.08;1.10;;;;;;;23.13;55.46;100467.72;5053264;28;20514;-23
2022/09/10 10:37:56;;;;;;;1.35;0.90;;;;;;;23.26;54.50;100469.59;5055516;28;20025;-23
2022/09/10 10:40:32;;;;;;;2.53;1.23;;;;;;;23.36;53.53;100461.81;5054364;28;20021;-22
2022/09/10 10:43:28;;;;;;;1.45;1.10;;;;;;;23.37;54.29;100455.50;5053665;28;20029;-22
2022/09/10 10:46:04;;;;;;;1.30;0.80;;;;;;;23.33;54.21;100461.03;5033472;28;20070;-22
2022/09/10 10:48:47;;;;;;;4.03;1.02;;;;;;;23.33;54.34;100465.53;5039515;28;20037;-22
2022/09/10 10:51:27;;;;;;;2.10;0.73;;;;;;;23.50;53.99;100460.91;5034303;28;20037;-23
2022/09/10 10:54:30;;;;;;;2.05;1.00;;;;;;;23.65;54.27;100453.63;5034275;28;20048;-24
2022/09/10 10:57:20;;;;;;;1.90;0.90;;;;;;;23.79;52.57;100458.94;5034301;28;20079;-23
2022/09/10 10:59:55;;;;;;;1.27;0.80;;;;;;;23.81;52.65;100456.13;5041497;28;20029;-24
2022/09/10 11:02:35;;;;;;;2.25;0.95;;;;;;;23.88;52.28;100449.34;5046793;28;20492;-23
2022/09/10 11:05:15;;;;;;;1.35;1.00;;;;;;;23.84;52.27;100453.19;5032891;28;20036;-23
2022/09/10 11:07:42;;;;;;;1.50;1.00;;;;;;;23.91;52.17;100454.50;5060888;28;20078;-25
2022/09/10 11:10:30;;;;;;;2.05;1.08;;;;;;;23.94;52.32;100457.00;5043118;28;20111;-23
2022/09/10 11:13:10;;;;;;;0.80;0.80;;;;;;;23.98;52.00;100454.09;5068101;28;20028;-23
2022/09/10 11:15:51;;;;;;;2.03;0.90;;;;;;;23.95;52.44;100456.00;5064177;28;20021;-23
2022/09/10 11:18:40;;;;;;;2.05;0.73;;;;;;;23.92;52.50;100452.69;5037505;28;20036;-23
2022/09/10 11:21:17;;;;;;;2.55;0.77;;;;;;;23.90;51.95;100455.47;5068242;28;20178;-23
2022/09/10 11:23:54;;;;;;;1.10;1.00;;;;;;;23.85;52.17;100452.25;5073469;28;20022;-23
2022/09/10 11:26:27;;;;;;;2.25;1.10;;;;;;;23.85;52.30;100452.25;5031821;28;20029;-23
2022/09/10 11:28:58;;;;;;;1.88;1.00;;;;;;;23.81;51.91;100442.66;5038772;28;20022;-23
2022/09/10 11:31:31;;;;;;;1.02;0.80;;;;;;;23.74;52.60;100431.44;5039445;28;20028;-23
2022/09/10 11:34:01;;;;;;;0.90;0.90;;;;;;;23.71;53.00;100443.28;5032567;28;20029;-23
2022/09/10 11:36:32;;;;;;;2.45;0.80;;;;;;;23.68;52.32;100438.09;5031871;28;20029;-24